createdAt,value
2018-05-31T00:01:17.308Z,100898.34
2018-05-31T00:04:03.225Z,100900.59
2018-05-31T00:06:36.411Z,100890.48
2018-05-31T00:09:07.589Z,100884.50
2018-05-31T00:11:43.052Z,100884.68
2018-05-31T00:14:13.807Z,100882.27
2018-05-31T00:16:45.521Z,100879.90
2018-05-31T00:19:18.262Z,100882.94
2018-05-31T00:21:48.813Z,100879.45
2018-05-31T00:26:54.917Z,100874.31
2018-05-31T00:29:25.993Z,100872.11
2018-05-31T00:31:56.781Z,100881.64
2018-05-31T00:34:29.377Z,100884.56
2018-05-31T00:36:59.863Z,100873.94
2018-05-31T00:39:30.138Z,100881.16
2018-05-31T00:42:00.535Z,100889.24
2018-05-31T00:44:31.596Z,100890.78
2018-05-31T00:47:04.066Z,100885.19
2018-05-31T00:49:36.739Z,100884.51
2018-05-31T00:52:07.978Z,100886.81
2018-05-31T00:54:38.434Z,100888.02
2018-05-31T00:57:11.614Z,100890.25
2018-05-31T00:59:42.478Z,100894.39
2018-05-31T01:02:13.214Z,100890.05
2018-05-31T01:04:43.580Z,100888.20
2018-05-31T01:07:14.241Z,100881.98
2018-05-31T01:09:52.160Z,100891.08
2018-05-31T01:12:22.430Z,100893.42
2018-05-31T01:14:58.014Z,100891.28
2018-05-31T01:21:14.371Z,100894.69
2018-05-31T01:23:44.929Z,100893.95
2018-05-31T01:26:15.408Z,100889.70
2018-05-31T01:28:46.774Z,100888.66
2018-05-31T01:31:17.820Z,100891.44
2018-05-31T01:33:48.746Z,100888.92
2018-05-31T01:36:20.853Z,100886.91
2018-05-31T01:38:52.859Z,100880.77
2018-05-31T01:41:23.489Z,100874.73
2018-05-31T01:43:56.810Z,100871.56
2018-05-31T01:46:30.002Z,100874.32
2018-05-31T01:49:00.500Z,100866.65
2018-05-31T01:51:31.037Z,100876.63
2018-05-31T01:54:02.354Z,100880.80
2018-05-31T01:56:33.392Z,100869.75
2018-05-31T01:59:03.982Z,100873.83
2018-05-31T02:01:34.686Z,100871.22
2018-05-31T02:04:16.371Z,100863.72
2018-05-31T02:06:48.235Z,100878.61
2018-05-31T02:09:26.349Z,100873.69
2018-05-31T02:11:56.803Z,100846.36
2018-05-31T02:14:27.623Z,100870.03
2018-05-31T02:17:03.890Z,100871.42
2018-05-31T02:19:34.350Z,100872.23
2018-05-31T02:22:04.774Z,100876.86
2018-05-31T02:24:35.202Z,100872.53
2018-05-31T02:27:05.677Z,100869.73
2018-05-31T02:29:36.099Z,100873.84
2018-05-31T02:32:09.301Z,100872.42
2018-05-31T02:34:40.526Z,100879.84
2018-05-31T02:37:13.187Z,100878.44
2018-05-31T02:43:38.247Z,100884.52
2018-05-31T02:46:14.523Z,100891.84
2018-05-31T02:48:49.228Z,100895.36
2018-05-31T02:51:21.033Z,100886.34
2018-05-31T02:54:24.282Z,100900.27
2018-05-31T02:57:12.786Z,100897.55
2018-05-31T03:02:41.327Z,100898.60
2018-05-31T03:05:16.093Z,100898.91
2018-05-31T03:07:47.503Z,100898.86
2018-05-31T03:10:18.443Z,100890.19
2018-05-31T03:12:48.761Z,100896.84
2018-05-31T03:15:20.761Z,100896.27
2018-05-31T03:17:52.607Z,100900.44
2018-05-31T03:20:25.670Z,100905.25
2018-05-31T03:22:56.733Z,100897.67
2018-05-31T03:25:27.487Z,100901.69
2018-05-31T03:28:12.149Z,100894.35
2018-05-31T03:30:42.990Z,100900.14
2018-05-31T03:33:21.590Z,100901.16
2018-05-31T03:35:54.458Z,100901.95
2018-05-31T03:38:25.562Z,100899.03
2018-05-31T03:40:59.607Z,100903.23
2018-05-31T03:43:31.943Z,100904.78
2018-05-31T03:46:06.874Z,100906.67
2018-05-31T03:48:37.484Z,100921.14
2018-05-31T03:51:24.781Z,100929.11
2018-05-31T03:53:55.003Z,100928.28
2018-05-31T03:56:25.040Z,100928.58
2018-05-31T03:58:55.496Z,100920.44
2018-05-31T04:01:26.246Z,100929.11
2018-05-31T04:03:57.278Z,100928.98
2018-05-31T04:06:28.250Z,100929.48
2018-05-31T04:09:00.268Z,100918.59
2018-05-31T04:11:31.176Z,100915.82
2018-05-31T04:14:02.164Z,100922.13
2018-05-31T04:16:33.164Z,100914.38
2018-05-31T04:19:04.902Z,100903.42
2018-05-31T04:21:41.038Z,100907.27
2018-05-31T04:24:11.654Z,100909.70
2018-05-31T04:26:42.322Z,100926.82
2018-05-31T04:29:13.165Z,100939.77
2018-05-31T04:31:43.793Z,100943.80
2018-05-31T04:34:14.122Z,100951.91
2018-05-31T04:36:44.878Z,100941.28
2018-05-31T04:39:15.706Z,100945.87
2018-05-31T04:41:45.822Z,100937.65
2018-05-31T04:44:16.528Z,100940.37
2018-05-31T04:46:48.931Z,100943.47
2018-05-31T04:49:20.362Z,100946.65
2018-05-31T04:51:51.393Z,100946.60
2018-05-31T04:54:22.179Z,100943.61
2018-05-31T04:56:52.833Z,100951.33
2018-05-31T04:59:23.150Z,100959.11
2018-05-31T05:01:54.029Z,100956.02
2018-05-31T05:04:25.183Z,100961.13
2018-05-31T05:06:55.582Z,100953.89
2018-05-31T05:09:27.010Z,100946.92
2018-05-31T05:11:57.308Z,100950.16
2018-05-31T05:14:27.676Z,100947.05
2018-05-31T05:16:58.910Z,100954.91
2018-05-31T05:19:29.575Z,100956.36
2018-05-31T05:21:59.978Z,100958.50
2018-05-31T05:24:30.606Z,100956.75
2018-05-31T05:27:01.666Z,100963.39
2018-05-31T05:29:31.997Z,100955.31
2018-05-31T05:32:03.177Z,100964.82
2018-05-31T05:34:33.652Z,100965.56
2018-05-31T05:37:22.349Z,100963.30
2018-05-31T05:39:58.270Z,100961.79
2018-05-31T05:42:28.773Z,100961.79
2018-05-31T05:44:59.144Z,100964.88
2018-05-31T05:50:00.974Z,100976.02
2018-05-31T05:52:31.494Z,100977.27
2018-05-31T05:55:05.072Z,100981.77
2018-05-31T05:57:35.903Z,100969.33
2018-05-31T06:00:09.326Z,100967.17
2018-05-31T06:02:44.176Z,100959.05
2018-05-31T06:05:20.964Z,100955.46
2018-05-31T06:07:53.269Z,100970.16
2018-05-31T06:10:24.060Z,100979.24
2018-05-31T06:13:02.216Z,100984.55
2018-05-31T06:15:40.462Z,100993.63
2018-05-31T06:18:12.469Z,100997.54
2018-05-31T06:20:43.033Z,101003.05
2018-05-31T06:23:15.222Z,101000.94
2018-05-31T06:25:45.571Z,101012.83
2018-05-31T06:28:18.858Z,101017.76
2018-05-31T06:30:54.911Z,101020.34
2018-05-31T06:33:26.718Z,101009.97
2018-05-31T06:35:57.878Z,101017.81
2018-05-31T06:38:42.315Z,101027.50
2018-05-31T06:41:18.634Z,101024.83
2018-05-31T06:43:51.225Z,101036.35
2018-05-31T06:49:04.497Z,101031.70
2018-05-31T06:51:38.351Z,101038.84
2018-05-31T06:54:09.496Z,101029.25
2018-05-31T06:56:43.580Z,101024.61
2018-05-31T06:59:27.454Z,101026.09
2018-05-31T07:02:08.487Z,101031.30
2018-05-31T07:04:41.074Z,101038.39
2018-05-31T07:07:14.440Z,101039.98
2018-05-31T07:09:53.902Z,101045.33
2018-05-31T07:12:28.337Z,101044.33
2018-05-31T07:15:10.349Z,101037.48
2018-05-31T07:17:49.009Z,101036.23
2018-05-31T07:20:23.085Z,101032.26
2018-05-31T07:22:54.433Z,101034.11
2018-05-31T07:25:25.164Z,101025.66
2018-05-31T07:27:58.406Z,101029.52
2018-05-31T07:30:34.770Z,101032.48
2018-05-31T07:33:08.600Z,100979.89
2018-05-31T07:35:40.866Z,101037.92
2018-05-31T07:38:19.482Z,101039.71
2018-05-31T07:40:50.586Z,101035.28
2018-05-31T07:43:22.843Z,101026.93
2018-05-31T07:46:00.161Z,101019.42
2018-05-31T07:51:22.049Z,101023.73
2018-05-31T07:54:00.396Z,101027.33
2018-05-31T07:57:03.211Z,101027.61
2018-05-31T07:59:46.033Z,101027.17
2018-05-31T08:02:19.697Z,101021.80
2018-05-31T08:05:05.950Z,101027.49
2018-05-31T08:07:49.847Z,101024.66
2018-05-31T08:13:53.347Z,101018.00
2018-05-31T08:16:54.547Z,101014.14
2018-05-31T08:20:09.605Z,101019.20
2018-05-31T08:22:56.192Z,101024.77
2018-05-31T08:25:50.234Z,101030.75
2018-05-31T08:28:27.338Z,101033.52
2018-05-31T08:31:02.266Z,101038.96
2018-05-31T08:33:42.370Z,101030.45
2018-05-31T08:36:15.717Z,101046.41
2018-05-31T08:38:48.638Z,101052.45
2018-05-31T08:41:21.634Z,101049.57
2018-05-31T08:44:02.380Z,101044.83
2018-05-31T08:46:35.337Z,101047.09
2018-05-31T08:49:08.354Z,101052.81
2018-05-31T08:51:42.548Z,101048.38
2018-05-31T08:54:14.023Z,101041.38
2018-05-31T08:56:50.695Z,101050.11
2018-05-31T08:59:25.733Z,101052.52
2018-05-31T09:02:01.835Z,101052.78
2018-05-31T09:04:35.470Z,101058.37
2018-05-31T09:07:08.049Z,101054.88
2018-05-31T09:09:40.026Z,101053.50
2018-05-31T09:12:17.747Z,101048.32
2018-05-31T09:14:49.030Z,101049.16
2018-05-31T09:17:20.126Z,101054.67
2018-05-31T09:19:54.869Z,101056.63
2018-05-31T09:22:31.626Z,101050.65
2018-05-31T09:25:08.916Z,101044.91
2018-05-31T09:27:40.883Z,101049.64
2018-05-31T09:30:20.641Z,101032.41
2018-05-31T09:32:53.096Z,101047.70
2018-05-31T09:35:25.935Z,101049.50
2018-05-31T09:37:59.595Z,101050.18
2018-05-31T09:40:33.341Z,101051.78
2018-05-31T09:43:08.081Z,101056.48
2018-05-31T09:45:42.803Z,101049.07
2018-05-31T09:48:14.074Z,101053.05
2018-05-31T09:50:47.287Z,101059.95
2018-05-31T09:53:19.338Z,101056.18
2018-05-31T09:55:54.668Z,101061.16
2018-05-31T09:58:27.665Z,101060.81
2018-05-31T10:00:58.889Z,101068.55
2018-05-31T10:03:32.896Z,101063.66
2018-05-31T10:06:10.058Z,101064.47
2018-05-31T10:08:42.456Z,101058.11
2018-05-31T10:11:16.087Z,101063.84
2018-05-31T10:13:59.494Z,101061.75
2018-05-31T10:16:33.951Z,101065.18
2018-05-31T10:19:09.783Z,101058.33
2018-05-31T10:21:42.073Z,101056.53
2018-05-31T10:24:13.284Z,101061.89
2018-05-31T10:26:43.963Z,101065.84
2018-05-31T10:29:14.548Z,101059.86
2018-05-31T10:31:45.578Z,101065.22
2018-05-31T10:34:22.641Z,101067.96
2018-05-31T10:36:54.247Z,101067.45
2018-05-31T10:39:25.354Z,101070.14
2018-05-31T10:41:55.869Z,101073.33
2018-05-31T10:44:28.341Z,101065.24
2018-05-31T10:47:08.348Z,101069.22
2018-05-31T10:50:10.048Z,101065.09
2018-05-31T10:52:49.078Z,101062.56
2018-05-31T10:55:21.327Z,101057.67
2018-05-31T10:57:54.966Z,101052.41
2018-05-31T11:00:26.662Z,101058.16
2018-05-31T11:02:57.746Z,101053.47
2018-05-31T11:05:29.832Z,101053.59
2018-05-31T11:08:10.147Z,101052.69
2018-05-31T11:10:52.815Z,101056.95
2018-05-31T11:13:23.616Z,101038.75
2018-05-31T11:16:05.026Z,101039.50
2018-05-31T11:18:44.042Z,101047.48
2018-05-31T11:21:18.547Z,101040.61
2018-05-31T11:23:51.107Z,101052.52
2018-05-31T11:26:22.479Z,101052.28
2018-05-31T11:28:53.088Z,101057.37
2018-05-31T11:31:24.396Z,101049.78
2018-05-31T11:33:55.168Z,101055.55
2018-05-31T11:36:25.828Z,101050.34
2018-05-31T11:38:56.355Z,101055.44
2018-05-31T11:41:26.993Z,101051.53
2018-05-31T11:44:04.703Z,101057.12
2018-05-31T11:46:35.873Z,101056.84
2018-05-31T11:49:06.328Z,101053.28
2018-05-31T11:51:37.132Z,101050.92
2018-05-31T11:54:07.648Z,101059.48
2018-05-31T11:56:38.078Z,101056.81
2018-05-31T11:59:10.390Z,101055.57
2018-05-31T12:01:42.554Z,101059.08
2018-05-31T12:04:13.264Z,101042.45
2018-05-31T12:09:32.980Z,101040.27
2018-05-31T12:12:04.208Z,101027.84
2018-05-31T12:14:34.869Z,101035.95
2018-05-31T12:17:06.267Z,101034.41
2018-05-31T12:19:37.814Z,101037.27
2018-05-31T12:22:08.676Z,101032.58
2018-05-31T12:24:42.578Z,101031.02
2018-05-31T12:27:14.016Z,101026.30
2018-05-31T12:29:45.826Z,101021.27
2018-05-31T12:32:17.938Z,101020.66
2018-05-31T12:34:55.154Z,101015.40
2018-05-31T12:37:27.816Z,101016.52
2018-05-31T12:40:01.086Z,101006.75
2018-05-31T12:42:35.061Z,100995.98
2018-05-31T12:45:29.838Z,100994.13
2018-05-31T12:48:06.292Z,100986.74
2018-05-31T12:50:39.617Z,100990.35
2018-05-31T12:53:12.766Z,100991.12
2018-05-31T12:55:43.732Z,101003.97
2018-05-31T12:58:14.593Z,101002.60
2018-05-31T13:00:45.931Z,101003.29
2018-05-31T13:03:16.580Z,100996.26
2018-05-31T13:05:48.488Z,100994.33
2018-05-31T13:08:19.661Z,100982.80
2018-05-31T13:10:53.444Z,100985.92
2018-05-31T13:13:24.141Z,100973.33
2018-05-31T13:15:55.987Z,100973.23
2018-05-31T13:18:27.264Z,100971.81
2018-05-31T13:21:03.431Z,100977.66
2018-05-31T13:23:38.738Z,100990.78
2018-05-31T13:26:12.794Z,100980.41
2018-05-31T13:28:47.771Z,100985.48
2018-05-31T13:31:27.961Z,100986.99
2018-05-31T13:34:03.789Z,100996.66
2018-05-31T13:36:38.691Z,100999.73
2018-05-31T13:39:16.622Z,100996.12
2018-05-31T13:41:50.843Z,100995.12
2018-05-31T13:44:27.051Z,101000.88
2018-05-31T13:47:13.963Z,101004.58
2018-05-31T13:53:24.125Z,100990.94
2018-05-31T13:56:09.266Z,100984.92
2018-05-31T13:58:50.005Z,100987.00
2018-05-31T14:01:28.561Z,100984.23
2018-05-31T14:04:00.890Z,100986.71
2018-05-31T14:06:31.746Z,100985.48
2018-05-31T14:09:02.413Z,100987.30
2018-05-31T14:11:34.706Z,100954.47
2018-05-31T14:14:05.168Z,100985.36
2018-05-31T14:16:36.433Z,100988.45
2018-05-31T14:19:09.623Z,100984.98
2018-05-31T14:21:40.567Z,100988.27
2018-05-31T14:24:11.245Z,100981.66
2018-05-31T14:26:43.301Z,100981.47
2018-05-31T14:29:17.459Z,100980.33
2018-05-31T14:32:02.449Z,100970.91
2018-05-31T14:34:42.024Z,100979.47
2018-05-31T14:37:13.710Z,100982.24
2018-05-31T14:42:58.314Z,100983.66
2018-05-31T14:45:42.239Z,100971.18
2018-05-31T14:48:16.634Z,100965.81
2018-05-31T14:50:47.001Z,100963.34
2018-05-31T14:53:17.453Z,100961.83
2018-05-31T14:55:52.151Z,100960.23
2018-05-31T14:58:24.439Z,100957.62
2018-05-31T15:00:57.858Z,100966.15
2018-05-31T15:03:28.267Z,100954.84
2018-05-31T15:06:00.892Z,100949.88
2018-05-31T15:08:31.775Z,100934.47
2018-05-31T15:11:14.064Z,100943.34
2018-05-31T15:14:03.017Z,100938.23
2018-05-31T15:16:36.780Z,100937.55
2018-05-31T15:19:13.350Z,100951.97
2018-05-31T15:21:44.495Z,100943.87
2018-05-31T15:24:18.904Z,100950.77
2018-05-31T15:26:51.216Z,100947.81
2018-05-31T15:29:26.812Z,100946.67
2018-05-31T15:32:12.652Z,100946.34
2018-05-31T15:34:51.965Z,100948.22
2018-05-31T15:37:22.846Z,100945.17
2018-05-31T15:39:56.516Z,100943.56
2018-05-31T15:42:29.676Z,100939.22
2018-05-31T15:45:06.258Z,100938.82
2018-05-31T15:47:43.953Z,100923.98
2018-05-31T15:50:22.504Z,100930.33
2018-05-31T15:52:57.894Z,100931.44
2018-05-31T15:55:30.926Z,100941.20
2018-05-31T16:00:51.512Z,100941.61
2018-05-31T16:03:38.060Z,100940.27
2018-05-31T16:06:09.802Z,100935.33
2018-05-31T16:08:40.197Z,100910.84
2018-05-31T16:11:10.858Z,100929.49
2018-05-31T16:13:51.779Z,100922.81
2018-05-31T16:16:22.788Z,100919.48
2018-05-31T16:18:54.321Z,100918.73
2018-05-31T16:21:30.429Z,100892.16
2018-05-31T16:24:00.878Z,100907.20
2018-05-31T16:26:35.386Z,100912.38
2018-05-31T16:29:09.008Z,100916.09
2018-05-31T16:31:44.600Z,100914.14
2018-05-31T16:34:18.731Z,100894.55
2018-05-31T16:36:58.529Z,100902.95
2018-05-31T16:39:29.063Z,100910.82
2018-05-31T16:42:01.251Z,100910.61
2018-05-31T16:44:31.609Z,100896.47
2018-05-31T16:47:07.025Z,100886.06
2018-05-31T16:49:41.299Z,100903.39
2018-05-31T16:52:15.392Z,100897.03
2018-05-31T16:55:01.952Z,100907.58
2018-05-31T16:57:33.865Z,100905.11
2018-05-31T17:00:10.483Z,100889.62
2018-05-31T17:02:45.168Z,100908.95
2018-05-31T17:05:17.413Z,100906.34
2018-05-31T17:07:48.771Z,100912.03
2018-05-31T17:10:28.963Z,100914.50
2018-05-31T17:13:02.194Z,100917.22
2018-05-31T17:15:33.294Z,100907.34
2018-05-31T17:18:05.394Z,100906.08
2018-05-31T17:20:38.989Z,100914.47
2018-05-31T17:23:18.132Z,100912.73
2018-05-31T17:25:49.946Z,100919.22
2018-05-31T17:28:23.482Z,100928.26
2018-05-31T17:31:05.502Z,100917.25
2018-05-31T17:33:46.105Z,100921.27
2018-05-31T17:36:27.265Z,100915.44
2018-05-31T17:38:58.518Z,100906.84
2018-05-31T17:41:30.439Z,100916.34
2018-05-31T17:44:04.697Z,100916.62
2018-05-31T17:46:41.064Z,100914.38
2018-05-31T17:49:13.476Z,100909.28
2018-05-31T17:51:53.085Z,100926.47
2018-05-31T17:54:47.067Z,100929.45
2018-05-31T17:57:21.944Z,100927.32
2018-05-31T17:59:55.286Z,100924.16
2018-05-31T18:02:29.297Z,100919.38
2018-05-31T18:07:58.023Z,100928.44
2018-05-31T18:10:35.686Z,100932.85
2018-05-31T18:13:17.501Z,100935.61
2018-05-31T18:16:07.129Z,100927.86
2018-05-31T18:18:38.268Z,100925.16
2018-05-31T18:21:12.238Z,100924.82
2018-05-31T18:23:46.043Z,100927.13
2018-05-31T18:26:22.455Z,100923.39
2018-05-31T18:28:53.416Z,100919.08
2018-05-31T18:31:36.745Z,100917.23
2018-05-31T18:34:12.984Z,100912.36
2018-05-31T18:36:51.110Z,100914.84
2018-05-31T18:39:38.916Z,100909.53
2018-05-31T18:42:13.575Z,100923.80
2018-05-31T18:44:48.947Z,100929.16
2018-05-31T18:47:21.209Z,100920.64
2018-05-31T18:49:55.544Z,100926.45
2018-05-31T18:52:28.522Z,100924.84
2018-05-31T18:55:33.511Z,100921.91
2018-05-31T18:58:37.897Z,100921.29
2018-05-31T19:01:08.900Z,100925.35
2018-05-31T19:03:39.998Z,100925.16
2018-05-31T19:06:10.554Z,100924.98
2018-05-31T19:08:44.395Z,100926.25
2018-05-31T19:12:31.821Z,100938.03
2018-05-31T19:15:21.768Z,100941.60
2018-05-31T19:18:12.599Z,100940.40
2018-05-31T19:20:50.394Z,100950.55
2018-05-31T19:23:22.476Z,100956.73
2018-05-31T19:25:53.749Z,100957.82
2018-05-31T19:28:25.764Z,100964.48
2018-05-31T19:31:17.305Z,100961.48
2018-05-31T19:33:50.900Z,100968.09
2018-05-31T19:37:31.979Z,100976.73
2018-05-31T19:40:05.647Z,100978.67
2018-05-31T19:42:48.975Z,100983.42
2018-05-31T19:45:22.189Z,100983.86
2018-05-31T19:47:54.155Z,100981.45
2018-05-31T19:50:38.645Z,100986.48
2018-05-31T19:54:13.104Z,100993.31
2018-05-31T19:56:50.924Z,100991.18
2018-05-31T20:05:46.449Z,100989.56
2018-05-31T20:08:16.900Z,101006.97
2018-05-31T20:10:48.596Z,101007.27
2018-05-31T20:13:19.642Z,101011.06
2018-05-31T20:15:50.637Z,101017.47
2018-05-31T20:21:05.145Z,101025.98
2018-05-31T20:23:37.084Z,101026.80
2018-05-31T20:26:08.491Z,101024.50
2018-05-31T20:28:44.351Z,101019.56
2018-05-31T20:31:20.988Z,101018.61
2018-05-31T20:34:02.973Z,101023.45
2018-05-31T20:36:35.448Z,101023.87
2018-05-31T20:39:16.767Z,101030.39
2018-05-31T20:41:50.216Z,101015.47
2018-05-31T20:44:22.858Z,101035.27
2018-05-31T20:46:54.800Z,101033.27
2018-05-31T20:49:31.763Z,101030.73
2018-05-31T20:52:14.711Z,101032.02
2018-05-31T20:54:48.278Z,101024.77
2018-05-31T20:57:20.460Z,101025.95
2018-05-31T20:59:53.864Z,100988.64
2018-05-31T21:02:31.740Z,101010.83
2018-05-31T21:05:04.166Z,101006.19
2018-05-31T21:07:37.049Z,101009.59
2018-05-31T21:10:12.769Z,101011.91
2018-05-31T21:13:08.698Z,101007.88
2018-05-31T21:15:54.997Z,101002.86
2018-05-31T21:18:27.343Z,101000.72
2018-05-31T21:20:58.522Z,101000.64
2018-05-31T21:23:35.455Z,101003.98
2018-05-31T21:26:05.912Z,101003.05
2018-05-31T21:31:24.432Z,100985.38
2018-05-31T21:33:57.452Z,100992.94
2018-05-31T21:36:28.208Z,100995.68
2018-05-31T21:38:59.224Z,100999.03
2018-05-31T21:41:31.381Z,100990.83
2018-05-31T21:44:02.303Z,100995.98
2018-05-31T21:46:44.397Z,101001.19
2018-05-31T21:49:23.084Z,101004.64
2018-05-31T21:51:55.162Z,101009.66
2018-05-31T21:54:27.119Z,101004.94
2018-05-31T21:56:59.196Z,101008.51
2018-05-31T21:59:42.373Z,101006.61
2018-05-31T22:02:14.385Z,100999.67
2018-05-31T22:04:45.345Z,100999.31
2018-05-31T22:07:16.604Z,101006.95
2018-05-31T22:09:47.427Z,101012.52
2018-05-31T22:12:34.229Z,101009.84
2018-05-31T22:15:08.932Z,101008.53
2018-05-31T22:17:39.919Z,101011.06
2018-05-31T22:20:10.730Z,101005.52
2018-05-31T22:22:41.299Z,101011.64
2018-05-31T22:25:12.159Z,100999.08
2018-05-31T22:30:30.951Z,100996.63
2018-05-31T22:33:07.467Z,100992.16
2018-05-31T22:35:39.221Z,100989.32
2018-05-31T22:38:09.653Z,100991.72
2018-05-31T22:40:42.273Z,100989.83
2018-05-31T22:43:12.947Z,100982.74
2018-05-31T22:45:43.553Z,100976.27
2018-05-31T22:48:14.288Z,100979.77
2018-05-31T22:50:45.321Z,100985.09
2018-05-31T22:53:17.605Z,100973.58
2018-05-31T22:55:52.698Z,100969.82
2018-05-31T22:58:24.973Z,100969.02
2018-05-31T23:00:55.630Z,100966.73
2018-05-31T23:03:26.154Z,100970.31
2018-05-31T23:05:57.756Z,100969.73
2018-05-31T23:11:21.973Z,100966.96
2018-05-31T23:13:54.007Z,100959.58
2018-05-31T23:16:26.335Z,100953.55
2018-05-31T23:18:59.097Z,100959.45
2018-05-31T23:21:31.552Z,100966.35
2018-05-31T23:24:02.112Z,100966.32
2018-05-31T23:26:36.105Z,100970.19
2018-05-31T23:29:10.090Z,100968.53
2018-05-31T23:31:41.277Z,100961.75
2018-05-31T23:34:12.063Z,100959.10
2018-05-31T23:36:42.908Z,100968.50
2018-05-31T23:39:13.447Z,100969.84
2018-05-31T23:41:44.470Z,100969.61
2018-05-31T23:44:14.827Z,100968.77
2018-05-31T23:46:50.515Z,100974.25
2018-05-31T23:49:20.737Z,100973.95
2018-05-31T23:51:51.011Z,100968.75
2018-05-31T23:54:21.691Z,100976.17
2018-05-31T23:56:52.897Z,100976.05
2018-05-31T23:59:23.067Z,100983.85
